Time;durP1;ratioP1;P1;durP2;ratioP2;P2;SDS_P1;SDS_P2;PMS_P1;PMS_P2;Temp;Humidity;BMP_temperature;BMP_pressure;BME280_temperature;BME280_humidity;BME280_pressure;Samples;Min_cycle;Max_cycle;Signal;HPM_P1;HPM_P2
2023/07/30 00:00:17;;;;;;;;;;;;;;;18.39;82.30;95029.34;5113764;28;977;-57
2023/07/30 00:02:43;;;;;;;;;;;;;;;18.46;81.83;95034.75;5095509;28;1187;-57
2023/07/30 00:05:09;;;;;;;;;;;;;;;18.48;81.49;95044.31;5113491;28;1028;-58
2023/07/30 00:07:35;;;;;;;;;;;;;;;18.47;81.56;95031.00;5113415;28;1910;-58
2023/07/30 00:10:00;;;;;;;;;;;;;;;18.34;81.93;95031.84;5113427;28;1104;-58
2023/07/30 00:12:26;;;;;;;;;;;;;;;18.40;82.32;95036.44;5113362;28;1048;-58
2023/07/30 00:14:52;;;;;;;;;;;;;;;18.45;81.64;95041.22;5113436;28;1096;-57
2023/07/30 00:17:18;;;;;;;;;;;;;;;18.32;81.68;95034.78;5113471;28;1033;-57
2023/07/30 00:19:44;;;;;;;;;;;;;;;18.14;82.99;95035.44;5113459;28;981;-57
2023/07/30 00:22:10;;;;;;;;;;;;;;;18.22;82.68;95034.38;5113678;28;970;-57
2023/07/30 00:24:36;;;;;;;;;;;;;;;18.12;82.88;95040.25;5113342;28;1003;-58
2023/07/30 00:27:02;;;;;;;;;;;;;;;17.97;83.47;95030.69;5113400;28;1989;-58
2023/07/30 00:29:28;;;;;;;;;;;;;;;18.33;82.07;95030.22;5134700;27;1213;-58
2023/07/30 00:31:54;;;;;;;;;;;;;;;18.40;81.36;95028.31;5157810;27;1048;-58
2023/07/30 00:34:20;;;;;;;;;;;;;;;18.27;82.62;95025.66;5158466;27;1067;-57
2023/07/30 00:36:46;;;;;;;;;;;;;;;18.35;81.51;95030.81;5158392;27;1000;-57
2023/07/30 00:39:12;;;;;;;;;;;;;;;18.07;83.18;95028.38;5158468;27;1059;-57
2023/07/30 00:41:38;;;;;;;;;;;;;;;18.17;82.33;95031.47;5158568;27;1062;-57
2023/07/30 00:44:04;;;;;;;;;;;;;;;18.18;82.49;95029.63;5158377;27;1051;-57
2023/07/30 00:46:30;;;;;;;;;;;;;;;18.44;81.08;95028.69;5158073;27;1024;-58
2023/07/30 00:48:56;;;;;;;;;;;;;;;18.34;81.46;95031.84;5158122;27;1994;-58
2023/07/30 00:51:22;;;;;;;;;;;;;;;18.24;82.32;95026.06;5158013;27;1170;-58
2023/07/30 00:53:48;;;;;;;;;;;;;;;18.12;82.79;95029.41;5158011;27;1051;-58
2023/07/30 00:56:15;;;;;;;;;;;;;;;17.99;83.23;95026.75;5158151;27;990;-57
2023/07/30 00:58:42;;;;;;;;;;;;;;;17.95;83.00;95030.91;5158171;27;969;-58
2023/07/30 01:01:08;;;;;;;;;;;;;;;17.91;83.28;95026.97;5157923;27;1031;-58
2023/07/30 01:03:34;;;;;;;;;;;;;;;17.87;83.50;95031.09;5158063;27;1018;-58
2023/07/30 01:06:01;;;;;;;;;;;;;;;17.89;83.32;95029.03;5148869;27;2470;-57
2023/07/30 01:08:27;;;;;;;;;;;;;;;17.92;83.06;95025.91;5116295;28;1909;-58
2023/07/30 01:10:53;;;;;;;;;;;;;;;17.87;83.53;95031.09;5116666;28;1021;-58
2023/07/30 01:13:19;;;;;;;;;;;;;;;17.84;83.36;95031.50;5098352;28;1056;-57
2023/07/30 01:15:46;;;;;;;;;;;;;;;17.66;84.21;95029.41;5116438;28;991;-58
2023/07/30 01:18:12;;;;;;;;;;;;;;;17.70;84.19;95023.41;5116487;28;995;-58
2023/07/30 01:20:38;;;;;;;;;;;;;;;18.02;82.18;95028.19;5116304;28;1166;-58
2023/07/30 01:23:04;;;;;;;;;;;;;;;18.19;81.31;95033.97;5116160;28;1015;-58
2023/07/30 01:25:33;;;;;;;;;;;;;;;17.96;82.00;95032.56;5116331;28;972;-58
2023/07/30 01:28:01;;;;;;;;;;;;;;;17.63;84.25;95033.38;5116069;28;1886;-58
2023/07/30 01:30:29;;;;;;;;;;;;;;;17.49;84.99;95042.50;5154080;27;1066;-58
2023/07/30 01:32:55;;;;;;;;;;;;;;;17.38;85.36;95038.56;5157295;27;1035;-58
2023/07/30 01:35:25;;;;;;;;;;;;;;;17.33;85.69;95043.75;5157203;27;1052;-58
2023/07/30 01:37:51;;;;;;;;;;;;;;;17.52;85.67;95050.22;5157427;27;1078;-57
2023/07/30 01:40:17;;;;;;;;;;;;;;;17.56;84.81;95052.28;5157077;27;1887;-57
2023/07/30 01:42:43;;;;;;;;;;;;;;;17.58;84.77;95046.69;5156945;27;1048;-58
2023/07/30 01:45:09;;;;;;;;;;;;;;;17.61;84.86;95040.88;5157292;27;1006;-58
2023/07/30 01:47:35;;;;;;;;;;;;;;;17.60;85.08;95046.47;5157075;27;1917;-58
2023/07/30 01:50:01;;;;;;;;;;;;;;;17.44;85.51;95047.72;5156984;27;995;-58
2023/07/30 01:52:27;;;;;;;;;;;;;;;17.52;84.82;95050.22;5156798;27;1032;-58
2023/07/30 01:54:53;;;;;;;;;;;;;;;17.50;85.18;95046.88;5156756;27;1091;-58
2023/07/30 01:57:19;;;;;;;;;;;;;;;17.46;84.82;95049.16;5156999;27;970;-58
2023/07/30 01:59:45;;;;;;;;;;;;;;;17.25;86.22;95050.19;5138480;27;1048;-57
2023/07/30 02:02:11;;;;;;;;;;;;;;;17.29;86.37;95050.59;5156882;27;995;-59
2023/07/30 02:04:37;;;;;;;;;;;;;;;17.59;84.65;95045.66;5156617;27;1525;-58
2023/07/30 02:07:03;;;;;;;;;;;;;;;17.71;83.98;95043.16;5156455;27;1996;-59
2023/07/30 02:09:29;;;;;;;;;;;;;;;17.70;83.72;95050.44;5156730;27;968;-58
2023/07/30 02:11:55;;;;;;;;;;;;;;;17.62;84.16;95056.03;5156691;27;1038;-59
2023/07/30 02:14:21;;;;;;;;;;;;;;;17.54;85.12;95053.53;5156643;27;1167;-59
2023/07/30 02:16:47;;;;;;;;;;;;;;;17.62;84.32;95047.91;5156364;27;897;-59
2023/07/30 02:19:13;;;;;;;;;;;;;;;17.54;84.65;95051.66;5156315;27;1048;-59
2023/07/30 02:21:42;;;;;;;;;;;;;;;17.65;83.74;95049.41;5156160;27;1064;-59
2023/07/30 02:24:10;;;;;;;;;;;;;;;17.50;84.78;95050.41;5156280;27;1098;-58
2023/07/30 02:26:37;;;;;;;;;;;;;;;17.45;85.28;95054.78;5156133;27;1138;-59
2023/07/30 02:29:03;;;;;;;;;;;;;;;17.32;85.43;95051.03;5148859;27;1975;-59
2023/07/30 02:31:29;;;;;;;;;;;;;;;17.28;85.94;95055.19;5135388;27;987;-59
2023/07/30 02:33:55;;;;;;;;;;;;;;;17.04;86.03;95051.19;5135386;27;969;-59
2023/07/30 02:36:21;;;;;;;;;;;;;;;16.86;87.44;95053.59;5135165;27;972;-59
2023/07/30 02:38:47;;;;;;;;;;;;;;;17.14;85.93;95051.59;5135431;27;984;-59
2023/07/30 02:41:13;;;;;;;;;;;;;;;17.29;85.64;95054.13;5117147;27;1048;-58
2023/07/30 02:43:39;;;;;;;;;;;;;;;17.18;85.83;95050.16;5135230;27;974;-58
2023/07/30 02:46:06;;;;;;;;;;;;;;;16.89;86.82;95054.03;5135170;27;1048;-59
2023/07/30 02:48:32;;;;;;;;;;;;;;;16.85;87.97;95049.25;5135208;27;1982;-58
2023/07/30 02:50:58;;;;;;;;;;;;;;;17.15;85.59;95066.78;5135290;27;1101;-58
2023/07/30 02:53:24;;;;;;;;;;;;;;;16.97;85.96;95061.94;5134621;27;1043;-59
2023/07/30 02:55:50;;;;;;;;;;;;;;;16.89;86.93;95058.59;5135242;27;977;-58
2023/07/30 02:58:16;;;;;;;;;;;;;;;16.66;88.23;95064.31;5134966;27;965;-58
2023/07/30 03:00:42;;;;;;;;;;;;;;;16.64;88.77;95064.50;5134864;27;991;-59
2023/07/30 03:03:09;;;;;;;;;;;;;;;16.65;88.39;95070.72;5134811;27;1247;-59
2023/07/30 03:05:35;;;;;;;;;;;;;;;16.70;88.09;95073.66;5134583;27;981;-59
2023/07/30 03:08:01;;;;;;;;;;;;;;;16.88;87.16;95075.84;5134814;27;1913;-59
2023/07/30 03:10:27;;;;;;;;;;;;;;;16.87;87.07;95079.59;5134857;27;1060;-59
2023/07/30 03:12:53;;;;;;;;;;;;;;;16.81;87.16;95081.19;5134888;27;969;-58
2023/07/30 03:15:19;;;;;;;;;;;;;;;16.88;87.44;95078.53;5134784;27;1075;-58
2023/07/30 03:17:45;;;;;;;;;;;;;;;16.81;87.55;95081.19;5134580;27;1040;-60
2023/07/30 03:20:11;;;;;;;;;;;;;;;16.75;87.91;95074.72;5134617;27;1262;-61
2023/07/30 03:22:37;;;;;;;;;;;;;;;16.88;87.24;95078.53;5134780;27;965;-60
2023/07/30 03:25:03;;;;;;;;;;;;;;;16.75;87.40;95088.22;5134643;27;1055;-60
2023/07/30 03:27:29;;;;;;;;;;;;;;;16.73;87.85;95087.59;5134356;27;1914;-60
2023/07/30 03:29:55;;;;;;;;;;;;;;;16.70;87.99;95085.28;5149136;27;1176;-59
2023/07/30 03:32:21;;;;;;;;;;;;;;;16.81;87.50;95081.19;5154991;27;1983;-60
2023/07/30 03:34:47;;;;;;;;;;;;;;;17.04;86.35;95083.59;5154987;27;996;-60
2023/07/30 03:37:13;;;;;;;;;;;;;;;16.95;86.67;95077.53;5155317;27;1007;-60
2023/07/30 03:39:39;;;;;;;;;;;;;;;17.04;86.83;95086.28;5155193;27;976;-61
2023/07/30 03:42:05;;;;;;;;;;;;;;;17.09;86.97;95085.66;5155232;27;1032;-61
2023/07/30 03:44:31;;;;;;;;;;;;;;;17.13;86.91;95084.22;5154843;27;1115;-59
2023/07/30 03:46:57;;;;;;;;;;;;;;;17.00;86.84;95089.56;5154943;27;1134;-59
2023/07/30 03:49:23;;;;;;;;;;;;;;;16.79;87.46;95094.06;5154987;27;1978;-59
2023/07/30 03:51:49;;;;;;;;;;;;;;;16.76;87.97;95091.75;5155131;27;1030;-58
2023/07/30 03:54:15;;;;;;;;;;;;;;;17.16;85.90;95094.63;5154748;27;1031;-58
2023/07/30 03:56:41;;;;;;;;;;;;;;;17.27;85.58;95101.31;5154848;27;1706;-59
2023/07/30 03:59:06;;;;;;;;;;;;;;;17.24;86.35;95102.53;5154824;27;1039;-59
2023/07/30 04:01:33;;;;;;;;;;;;;;;17.27;86.84;95101.31;5154741;27;1052;-59
2023/07/30 04:03:59;;;;;;;;;;;;;;;17.35;86.03;95104.66;5154830;27;880;-58
2023/07/30 04:06:25;;;;;;;;;;;;;;;17.32;86.34;95107.78;5158893;27;1051;-59
2023/07/30 04:08:51;;;;;;;;;;;;;;;17.25;86.39;95101.53;5158799;27;1996;-59
2023/07/30 04:11:17;;;;;;;;;;;;;;;17.30;86.91;95106.28;5140548;27;979;-59
2023/07/30 04:13:43;;;;;;;;;;;;;;;17.29;87.96;95102.78;5158850;27;968;-59
2023/07/30 04:16:09;;;;;;;;;;;;;;;17.34;88.50;95103.00;5159033;27;999;-58
2023/07/30 04:18:35;;;;;;;;;;;;;;;17.52;88.25;95104.28;5158550;27;1036;-59
2023/07/30 04:21:01;;;;;;;;;;;;;;;17.64;88.26;95105.34;5158646;27;1024;-59
2023/07/30 04:23:27;;;;;;;;;;;;;;;17.94;86.91;95104.97;5158880;27;1004;-59
2023/07/30 04:25:53;;;;;;;;;;;;;;;18.18;85.74;95108.09;5158777;27;1039;-58
2023/07/30 04:28:19;;;;;;;;;;;;;;;18.34;85.49;95113.06;5157434;27;1976;-59
2023/07/30 04:30:46;;;;;;;;;;;;;;;18.48;85.20;95112.00;5137741;27;1040;-58
2023/07/30 04:52:12;;;;;;;;;;;;;;;18.68;85.35;95111.13;5131622;27;1269;-58
2023/07/30 04:54:38;;;;;;;;;;;;;;;19.19;83.35;95109.50;5131423;28;1005;-58
2023/07/30 04:57:05;;;;;;;;;;;;;;;19.56;82.21;95113.28;5130157;28;1141;-57
2023/07/30 04:59:33;;;;;;;;;;;;;;;19.79;81.29;95120.06;5131719;27;964;-57
2023/07/30 05:01:59;;;;;;;;;;;;;;;19.93;79.58;95121.59;5131848;27;1039;-57
2023/07/30 05:04:25;;;;;;;;;;;;;;;20.18;79.31;95116.19;5131490;27;1027;-58
2023/07/30 05:06:51;;;;;;;;;;;;;;;20.22;79.05;95112.00;5131669;27;1342;-58
2023/07/30 05:09:17;;;;;;;;;;;;;;;20.40;78.89;95116.63;5131695;28;1003;-58
2023/07/30 05:11:43;;;;;;;;;;;;;;;20.45;76.47;95113.22;5130205;28;1996;-58
2023/07/30 05:14:09;;;;;;;;;;;;;;;20.55;75.54;95105.41;5131176;28;1470;-57
2023/07/30 05:16:36;;;;;;;;;;;;;;;20.83;75.96;95110.38;5131583;28;1200;-58
2023/07/30 05:19:02;;;;;;;;;;;;;;;20.91;74.80;95105.69;5131366;27;1015;-58
2023/07/30 05:21:28;;;;;;;;;;;;;;;20.98;74.72;95101.84;5131203;27;1027;-57
2023/07/30 05:23:54;;;;;;;;;;;;;;;21.19;73.67;95107.84;5131371;28;965;-58
2023/07/30 05:26:20;;;;;;;;;;;;;;;21.33;73.24;95108.53;5131369;28;1063;-57
2023/07/30 05:28:45;;;;;;;;;;;;;;;21.36;71.27;95110.75;5131141;28;1126;-58
2023/07/30 05:31:11;;;;;;;;;;;;;;;21.54;69.14;95112.66;5131083;28;1909;-58
2023/07/30 05:33:37;;;;;;;;;;;;;;;21.64;70.83;95116.50;5131320;28;1004;-58
2023/07/30 05:36:03;;;;;;;;;;;;;;;21.69;70.77;95114.97;5131191;28;1018;-57
2023/07/30 05:38:29;;;;;;;;;;;;;;;21.79;69.05;95118.75;5131085;28;1321;-58
2023/07/30 05:40:55;;;;;;;;;;;;;;;21.83;70.31;95117.25;5130823;28;1127;-58
2023/07/30 05:43:21;;;;;;;;;;;;;;;21.74;69.96;95115.06;5130969;28;961;-58
2023/07/30 05:45:47;;;;;;;;;;;;;;;21.84;70.08;95116.19;5130894;28;1007;-57
2023/07/30 05:48:13;;;;;;;;;;;;;;;22.09;70.18;95119.81;5130643;28;972;-56
2023/07/30 05:50:39;;;;;;;;;;;;;;;22.35;69.70;95124.03;5130487;27;1922;-57
2023/07/30 05:53:05;;;;;;;;;;;;;;;22.53;68.03;95123.88;5130912;27;1026;-58
2023/07/30 05:55:31;;;;;;;;;;;;;;;22.63;67.80;95123.28;5130488;27;1016;-58
2023/07/30 05:57:58;;;;;;;;;;;;;;;22.77;67.97;95127.44;5130468;28;1123;-57
2023/07/30 06:00:24;;;;;;;;;;;;;;;22.91;68.36;95119.00;5130526;27;955;-60
2023/07/30 06:02:50;;;;;;;;;;;;;;;23.02;66.44;95117.34;5121202;27;1035;-60
2023/07/30 06:05:16;;;;;;;;;;;;;;;23.06;67.98;95124.00;5116653;28;992;-60
2023/07/30 06:07:42;;;;;;;;;;;;;;;23.32;66.76;95117.19;5116976;28;1022;-60
2023/07/30 06:10:08;;;;;;;;;;;;;;;23.30;66.05;95116.59;5116797;28;1995;-60
2023/07/30 06:12:34;;;;;;;;;;;;;;;23.27;67.14;95117.91;5116713;28;979;-60
2023/07/30 06:14:59;;;;;;;;;;;;;;;23.46;67.17;95115.81;5116693;28;1042;-60
2023/07/30 06:17:25;;;;;;;;;;;;;;;23.52;67.14;95114.03;5114053;28;1345;-61
2023/07/30 06:19:51;;;;;;;;;;;;;;;23.49;67.45;95109.91;5116127;28;1221;-62
2023/07/30 06:22:17;;;;;;;;;;;;;;;23.59;67.09;95110.06;5116400;28;965;-61
2023/07/30 06:24:43;;;;;;;;;;;;;;;23.70;66.59;95107.56;5116640;28;992;-61
2023/07/30 06:27:09;;;;;;;;;;;;;;;23.89;66.65;95109.03;5116662;28;1004;-61
2023/07/30 06:29:36;;;;;;;;;;;;;;;23.89;66.46;95103.56;5115990;28;1061;-58
2023/07/30 06:32:02;;;;;;;;;;;;;;;24.22;65.56;95106.56;5116223;28;1901;-60
2023/07/30 06:34:28;;;;;;;;;;;;;;;24.46;65.05;95101.78;5116203;28;976;-59
2023/07/30 06:36:54;;;;;;;;;;;;;;;24.62;63.95;95102.88;5115935;28;1059;-59
2023/07/30 06:39:21;;;;;;;;;;;;;;;24.95;63.11;95093.78;5116047;28;1024;-60
2023/07/30 06:41:47;;;;;;;;;;;;;;;25.00;62.79;95102.03;5116256;28;1028;-61
2023/07/30 06:44:13;;;;;;;;;;;;;;;25.09;61.72;95088.75;5115905;28;1047;-60
2023/07/30 06:46:38;;;;;;;;;;;;;;;25.18;62.48;95079.03;5115409;28;1961;-62
2023/07/30 06:49:04;;;;;;;;;;;;;;;25.37;62.25;95085.03;5116167;28;1046;-61
2023/07/30 06:51:30;;;;;;;;;;;;;;;25.49;60.65;95088.44;5115440;28;1999;-62
2023/07/30 06:53:56;;;;;;;;;;;;;;;25.38;61.99;95085.84;5115113;28;1043;-62
2023/07/30 06:56:22;;;;;;;;;;;;;;;25.52;61.51;95081.66;5115548;28;1122;-62
2023/07/30 06:58:48;;;;;;;;;;;;;;;25.57;59.39;95083.59;5115968;28;968;-62
2023/07/30 07:01:14;;;;;;;;;;;;;;;25.61;61.38;95080.09;5115485;28;1095;-62
2023/07/30 07:03:40;;;;;;;;;;;;;;;25.73;60.68;95088.16;5109768;28;2494;-62
2023/07/30 07:06:06;;;;;;;;;;;;;;;25.82;59.12;95083.88;5095037;28;1111;-62
2023/07/30 07:08:32;;;;;;;;;;;;;;;25.75;60.37;95074.22;5094928;28;1051;-62
2023/07/30 07:10:58;;;;;;;;;;;;;;;25.93;60.55;95071.13;5095163;28;1906;-62
2023/07/30 07:13:24;;;;;;;;;;;;;;;26.03;60.39;95075.91;5094364;28;976;-62
2023/07/30 07:15:50;;;;;;;;;;;;;;;26.36;58.29;95068.50;5094874;28;956;-62
2023/07/30 07:18:16;;;;;;;;;;;;;;;26.48;58.17;95061.72;5095061;28;988;-62
2023/07/30 07:20:42;;;;;;;;;;;;;;;26.77;57.92;95060.56;5094998;28;924;-62
2023/07/30 07:23:08;;;;;;;;;;;;;;;26.68;58.92;95065.72;5094785;28;1107;-62
2023/07/30 07:25:34;;;;;;;;;;;;;;;26.73;57.86;95063.03;5095828;28;2522;-61
2023/07/30 07:28:00;;;;;;;;;;;;;;;26.78;57.03;95054.00;5094810;28;1160;-62
2023/07/30 07:30:26;;;;;;;;;;;;;;;26.99;56.73;95050.25;5112836;28;1918;-62
2023/07/30 07:32:52;;;;;;;;;;;;;;;26.83;55.20;95056.78;5115297;28;1051;-62
2023/07/30 07:35:21;;;;;;;;;;;;;;;26.78;56.25;95048.50;5114837;28;1118;-61
2023/07/30 07:37:47;;;;;;;;;;;;;;;27.00;55.58;95043.69;5115151;28;928;-61
2023/07/30 07:40:13;;;;;;;;;;;;;;;27.35;52.47;95050.44;5114984;28;944;-61
2023/07/30 07:42:39;;;;;;;;;;;;;;;27.55;53.11;95046.13;5115036;28;1132;-62
2023/07/30 07:45:06;;;;;;;;;;;;;;;27.55;53.54;95049.69;5113612;28;989;-62
2023/07/30 07:47:32;;;;;;;;;;;;;;;27.55;52.77;95043.38;5115052;28;1051;-62
2023/07/30 07:49:58;;;;;;;;;;;;;;;27.61;53.27;95040.34;5114319;28;1993;-62
2023/07/30 07:52:24;;;;;;;;;;;;;;;27.75;52.07;95043.38;5113545;28;1288;-62
2023/07/30 07:54:50;;;;;;;;;;;;;;;27.85;52.01;95040.69;5114710;28;987;-62
2023/07/30 07:57:16;;;;;;;;;;;;;;;28.06;49.87;95039.88;5114661;28;1055;-62
2023/07/30 07:59:44;;;;;;;;;;;;;;;28.21;50.49;95032.47;5114511;28;956;-62
2023/07/30 08:02:11;;;;;;;;;;;;;;;28.26;50.69;95036.31;5114412;28;1022;-62
2023/07/30 08:04:37;;;;;;;;;;;;;;;28.45;51.20;95026.41;5114590;28;1044;-62
2023/07/30 08:07:03;;;;;;;;;;;;;;;28.45;50.08;95022.84;5114524;28;977;-62
2023/07/30 08:09:30;;;;;;;;;;;;;;;28.51;48.52;95021.72;5114168;28;1106;-62
2023/07/30 08:11:56;;;;;;;;;;;;;;;28.60;47.22;95022.84;5114312;28;1909;-61
2023/07/30 08:14:22;;;;;;;;;;;;;;;28.53;48.27;95020.41;5114126;28;1098;-62
2023/07/30 08:16:48;;;;;;;;;;;;;;;28.68;47.95;95026.94;5114199;28;1032;-62
2023/07/30 08:19:14;;;;;;;;;;;;;;;28.91;47.95;95023.59;5113918;28;1044;-62
2023/07/30 08:21:40;;;;;;;;;;;;;;;28.77;49.00;95012.34;5114023;28;1028;-60
2023/07/30 08:24:06;;;;;;;;;;;;;;;28.79;46.93;95021.13;5114000;28;1071;-60
2023/07/30 08:26:32;;;;;;;;;;;;;;;29.04;46.39;95013.09;5113621;28;1020;-60
2023/07/30 08:28:57;;;;;;;;;;;;;;;29.08;47.74;95006.72;5113929;28;1141;-61
2023/07/30 08:31:24;;;;;;;;;;;;;;;29.16;47.39;95010.88;5113795;28;1917;-61
2023/07/30 08:33:50;;;;;;;;;;;;;;;29.13;46.72;95000.41;5114084;28;1003;-61
2023/07/30 08:36:16;;;;;;;;;;;;;;;29.12;47.42;94996.81;5114005;28;1058;-60
2023/07/30 08:38:42;;;;;;;;;;;;;;;29.06;47.37;94997.13;5114155;28;1003;-60
2023/07/30 08:41:08;;;;;;;;;;;;;;;29.00;45.77;95002.63;5114091;28;1054;-60
2023/07/30 08:43:34;;;;;;;;;;;;;;;29.19;47.17;94991.03;5113790;28;980;-60
2023/07/30 08:46:01;;;;;;;;;;;;;;;29.37;46.75;94993.16;5113760;28;1032;-61
2023/07/30 08:48:27;;;;;;;;;;;;;;;29.48;47.13;94982.91;5113559;28;1023;-61
2023/07/30 08:50:56;;;;;;;;;;;;;;;29.51;46.88;94985.06;5113669;28;1914;-61
2023/07/30 08:53:24;;;;;;;;;;;;;;;29.49;46.48;94979.03;5113679;28;1019;-60
2023/07/30 08:55:50;;;;;;;;;;;;;;;29.72;46.16;94984.94;5113950;28;1103;-62
2023/07/30 08:58:17;;;;;;;;;;;;;;;29.80;45.03;94984.34;5113693;28;964;-62
2023/07/30 09:00:43;;;;;;;;;;;;;;;29.86;46.16;94976.88;5113950;28;968;-61
2023/07/30 09:03:11;;;;;;;;;;;;;;;30.08;46.28;94980.00;5113608;28;980;-62
2023/07/30 09:05:37;;;;;;;;;;;;;;;30.24;45.20;94979.84;5113835;28;1039;-61
2023/07/30 09:08:03;;;;;;;;;;;;;;;30.30;44.67;94974.03;5113742;28;968;-61
2023/07/30 09:10:29;;;;;;;;;;;;;;;30.39;45.46;94976.97;5113503;28;1987;-62
2023/07/30 09:12:57;;;;;;;;;;;;;;;30.49;44.11;94979.66;5113540;28;1023;-61
2023/07/30 09:15:33;;;;;;;;;;;;;;;30.54;43.99;94971.34;5113437;28;1051;-61
2023/07/30 09:18:00;;;;;;;;;;;;;;;30.54;42.11;94978.78;5114117;28;957;-61
2023/07/30 09:20:26;;;;;;;;;;;;;;;30.58;43.96;94970.75;5113527;28;972;-62
2023/07/30 09:22:55;;;;;;;;;;;;;;;30.70;42.67;94976.69;5109457;28;2454;-61
2023/07/30 09:25:21;;;;;;;;;;;;;;;30.76;40.80;94972.75;5113636;28;2129;-61
2023/07/30 09:27:49;;;;;;;;;;;;;;;30.86;40.75;94972.63;5113380;28;1965;-61
2023/07/30 09:30:21;;;;;;;;;;;;;;;30.92;41.42;94970.66;5113096;28;1922;-60
2023/07/30 09:32:51;;;;;;;;;;;;;;;31.03;41.77;94965.84;5113374;28;1028;-61
2023/07/30 09:35:17;;;;;;;;;;;;;;;31.17;41.84;94961.25;5113344;28;979;-61
2023/07/30 09:37:43;;;;;;;;;;;;;;;31.13;40.61;94962.94;5114930;28;1091;-61
2023/07/30 09:40:11;;;;;;;;;;;;;;;30.70;40.53;94957.38;5117132;28;1119;-61
2023/07/30 09:42:39;;;;;;;;;;;;;;;30.19;39.89;94952.34;5117086;28;1072;-61
2023/07/30 09:45:16;;;;;;;;;;;;;;;29.77;42.69;94938.91;5117174;28;968;-61
2023/07/30 09:47:46;;;;;;;;;;;;;;;29.42;42.14;94942.72;5117105;28;1094;-63
2023/07/30 09:50:12;;;;;;;;;;;;;;;29.29;43.85;94930.44;5116996;28;1910;-63
2023/07/30 09:52:38;;;;;;;;;;;;;;;29.53;43.05;94926.94;5117081;28;1062;-60
2023/07/30 09:55:06;;;;;;;;;;;;;;;30.10;42.00;94928.16;5116962;28;1039;-57
2023/07/30 09:57:32;;;;;;;;;;;;;;;30.64;40.83;94928.19;5117073;28;1180;-56
2023/07/30 09:59:58;;;;;;;;;;;;;;;30.94;41.37;94916.81;5116900;28;1040;-57
2023/07/30 10:02:24;;;;;;;;;;;;;;;31.00;39.05;94920.34;5117065;28;991;-57
2023/07/30 10:04:50;;;;;;;;;;;;;;;31.19;41.53;94912.06;5117102;28;1015;-58
2023/07/30 10:07:19;;;;;;;;;;;;;;;31.39;40.95;94912.88;5116791;28;1012;-58
2023/07/30 10:09:46;;;;;;;;;;;;;;;31.39;40.97;94901.84;5108251;28;3101;-61
2023/07/30 10:12:16;;;;;;;;;;;;;;;31.35;40.17;94901.63;5096131;28;1906;-62
2023/07/30 10:14:42;;;;;;;;;;;;;;;31.54;39.48;94904.41;5096879;28;1072;-60
2023/07/30 10:17:12;;;;;;;;;;;;;;;31.48;39.11;94908.38;5096196;28;1102;-59
2023/07/30 10:19:38;;;;;;;;;;;;;;;31.56;39.32;94906.88;5096418;28;1039;-60
2023/07/30 10:22:23;;;;;;;;;;;;;;;31.66;38.74;94898.41;5096370;28;1003;-59
2023/07/30 10:24:56;;;;;;;;;;;;;;;31.80;39.68;94887.41;5096388;28;968;-59
2023/07/30 10:27:24;;;;;;;;;;;;;;;31.97;40.58;94886.84;5095894;28;1209;-58
2023/07/30 10:30:07;;;;;;;;;;;;;;;32.12;39.66;94888.53;5109519;28;1165;-58
2023/07/30 10:32:57;;;;;;;;;;;;;;;32.10;37.96;94889.69;5116601;28;948;-58
2023/07/30 10:35:35;;;;;;;;;;;;;;;31.96;37.47;94883.25;5115032;28;1031;-58
2023/07/30 10:38:12;;;;;;;;;;;;;;;31.81;38.08;94875.22;5116183;28;1087;-56
2023/07/30 10:40:39;;;;;;;;;;;;;;;31.75;38.49;94871.72;5116355;28;1056;-58
2023/07/30 10:43:17;;;;;;;;;;;;;;;31.85;39.79;94866.03;5114873;28;1515;-59
2023/07/30 10:45:50;;;;;;;;;;;;;;;32.20;38.62;94860.19;5116020;28;1048;-58
2023/07/30 10:48:16;;;;;;;;;;;;;;;32.42;36.35;94863.09;5113042;27;1264;-58
2023/07/30 10:50:48;;;;;;;;;;;;;;;32.37;37.63;94862.38;5115488;28;1934;-58
2023/07/30 10:53:15;;;;;;;;;;;;;;;32.25;38.28;94857.31;5116187;28;1022;-58
2023/07/30 10:55:42;;;;;;;;;;;;;;;32.43;35.42;94861.94;5115827;28;1095;-58
2023/07/30 10:58:08;;;;;;;;;;;;;;;32.55;37.15;94850.38;5116048;28;1014;-58
2023/07/30 11:00:34;;;;;;;;;;;;;;;32.77;35.46;94855.22;5115753;28;1452;-58
2023/07/30 11:03:00;;;;;;;;;;;;;;;32.94;35.54;94846.25;5115541;28;1055;-58
2023/07/30 11:05:26;;;;;;;;;;;;;;;33.00;35.68;94849.75;5115726;28;964;-59
2023/07/30 11:07:52;;;;;;;;;;;;;;;32.81;37.00;94839.63;5115683;28;972;-59
2023/07/30 11:10:18;;;;;;;;;;;;;;;32.83;38.95;94828.25;5115365;28;1909;-59
2023/07/30 11:12:44;;;;;;;;;;;;;;;32.76;36.26;94825.88;5115541;28;973;-58
2023/07/30 11:15:10;;;;;;;;;;;;;;;32.57;36.89;94826.00;5115761;28;1024;-58
2023/07/30 11:17:36;;;;;;;;;;;;;;;32.68;39.25;94821.06;5115617;28;1019;-58
2023/07/30 11:20:02;;;;;;;;;;;;;;;32.71;35.67;94820.47;5114301;28;1112;-57
2023/07/30 11:22:30;;;;;;;;;;;;;;;32.95;35.37;94831.28;5115332;28;1137;-58
2023/07/30 11:24:56;;;;;;;;;;;;;;;33.07;34.68;94826.03;5115501;28;1013;-58
2023/07/30 11:27:22;;;;;;;;;;;;;;;32.66;35.39;94817.81;5115371;28;1207;-58
2023/07/30 11:29:56;;;;;;;;;;;;;;;32.47;35.57;94815.13;5115002;28;1200;-58
2023/07/30 11:32:25;;;;;;;;;;;;;;;32.74;36.05;94811.53;5103669;28;3067;-58
2023/07/30 11:34:53;;;;;;;;;;;;;;;33.07;35.99;94811.38;5094657;28;1048;-58
2023/07/30 11:37:20;;;;;;;;;;;;;;;33.12;34.93;94802.16;5094505;28;1095;-58
2023/07/30 11:39:47;;;;;;;;;;;;;;;32.75;36.25;94788.28;5076737;28;1140;-58
2023/07/30 11:42:14;;;;;;;;;;;;;;;32.94;35.83;94801.16;5094785;28;1047;-58
2023/07/30 11:44:40;;;;;;;;;;;;;;;32.98;35.62;94796.63;5094778;28;961;-58
2023/07/30 11:47:09;;;;;;;;;;;;;;;33.20;34.50;94796.69;5094554;28;1031;-58
2023/07/30 11:49:35;;;;;;;;;;;;;;;33.06;35.22;94787.56;5094273;28;1087;-58
2023/07/30 11:52:04;;;;;;;;;;;;;;;32.78;35.69;94784.91;5096361;28;2801;-58
2023/07/30 11:54:32;;;;;;;;;;;;;;;32.99;34.55;94782.47;5094205;28;1067;-58
2023/07/30 11:56:58;;;;;;;;;;;;;;;33.15;35.63;94774.66;5094494;28;1078;-58
2023/07/30 11:59:24;;;;;;;;;;;;;;;33.30;34.34;94780.97;5093937;28;1087;-58
2023/07/30 12:01:51;;;;;;;;;;;;;;;33.48;35.12;94771.63;5094073;28;1039;-58
2023/07/30 12:04:18;;;;;;;;;;;;;;;33.43;35.07;94763.44;5093993;28;1028;-58
2023/07/30 12:06:45;;;;;;;;;;;;;;;33.28;33.79;94761.03;5093008;28;1040;-58
2023/07/30 12:09:15;;;;;;;;;;;;;;;33.24;34.33;94761.69;5106309;28;3134;-58
2023/07/30 12:11:45;;;;;;;;;;;;;;;33.37;35.58;94754.44;5114552;28;1988;-57
2023/07/30 12:14:13;;;;;;;;;;;;;;;33.30;35.62;94747.72;5114572;28;965;-58
2023/07/30 12:16:39;;;;;;;;;;;;;;;33.07;36.59;94744.91;5109007;28;3045;-58
2023/07/30 12:19:05;;;;;;;;;;;;;;;33.10;33.89;94735.97;5094180;28;988;-58
2023/07/30 12:21:31;;;;;;;;;;;;;;;33.02;33.64;94747.78;5093815;28;1032;-58
2023/07/30 12:23:57;;;;;;;;;;;;;;;32.55;34.29;94730.56;5093591;28;1052;-58
2023/07/30 12:26:24;;;;;;;;;;;;;;;32.12;34.03;94733.69;5095322;28;2986;-58
2023/07/30 12:28:50;;;;;;;;;;;;;;;32.37;35.19;94741.47;5097673;28;2246;-58
2023/07/30 12:31:22;;;;;;;;;;;;;;;32.75;35.14;94732.91;5093043;28;2890;-58
2023/07/30 12:33:48;;;;;;;;;;;;;;;32.82;34.41;94738.00;5093472;28;1367;-58
2023/07/30 12:36:14;;;;;;;;;;;;;;;32.73;35.81;94728.84;5093688;28;1233;-58
2023/07/30 12:38:40;;;;;;;;;;;;;;;32.93;34.75;94724.75;5093587;28;1284;-58
2023/07/30 12:41:06;;;;;;;;;;;;;;;33.01;35.07;94722.06;5093534;28;1111;-58
2023/07/30 12:43:32;;;;;;;;;;;;;;;33.04;34.45;94715.06;5093795;28;1010;-58
2023/07/30 12:45:58;;;;;;;;;;;;;;;32.77;32.93;94719.56;5093625;28;971;-58
2023/07/30 12:48:24;;;;;;;;;;;;;;;32.79;33.71;94717.31;5094055;28;2453;-58
2023/07/30 12:50:50;;;;;;;;;;;;;;;32.89;34.52;94721.78;5093232;28;1905;-58
2023/07/30 12:53:16;;;;;;;;;;;;;;;32.96;35.02;94710.28;5092186;28;2777;-58
2023/07/30 12:55:42;;;;;;;;;;;;;;;32.95;34.04;94709.44;5093452;28;2853;-58
2023/07/30 12:58:08;;;;;;;;;;;;;;;33.02;34.17;94706.25;5093586;28;976;-58
2023/07/30 13:00:34;;;;;;;;;;;;;;;33.05;34.70;94708.41;5093606;28;972;-58
2023/07/30 13:03:01;;;;;;;;;;;;;;;33.20;34.14;94702.53;5093256;28;1095;-58
2023/07/30 13:05:28;;;;;;;;;;;;;;;33.36;35.49;94702.94;5093231;28;1036;-58
2023/07/30 13:07:54;;;;;;;;;;;;;;;33.06;34.13;94699.75;5094180;28;2861;-58
2023/07/30 13:10:20;;;;;;;;;;;;;;;32.84;34.28;94689.53;5109621;28;2952;-58
2023/07/30 13:12:46;;;;;;;;;;;;;;;32.82;33.91;94689.03;5115330;28;1045;-57
2023/07/30 13:15:12;;;;;;;;;;;;;;;32.55;33.93;94689.06;5116252;28;3004;-57